Terminal Aerodrome Forecast
Issued by NWS

Home | Current Version | Previous Version | Text Only | Print | Product List | Glossary On
Versions: 1 2 3 4 5 6 7 8 9 10 11 12 13 14 15 16 17 18 19 20
000
FTUS43 KIND 292320
TAFBMG
TAF
KBMG 292320Z 3000/3024 27005KT P6SM VCTS SCT035CB BKN250
     FM300400 00000KT 4SM BR BKN250
     FM300800 00000KT 3SM BR BKN004
      TEMPO 3008/3012 1 1/2SM BR BKN250
     FM301300 24003KT 4SM BR SCT015 SCT250
     FM301600 24003KT P6SM VCTS BKN080CB
      AMD LTD TO CLD VIS AND WIND TIL 301300=

USA.gov is the U.S. government's official web portal to all federal, state and local government web resources and services.